Friday, January 18, 2019, 2:47 AM EST
Back to Local

KMMK, Meriden Markham Municipal Airport

Location: Meriden, CT, United States Lat: 41.517
Local Time: 2:47 AM EST ( 7:47 GMT) Lon: -72.833
Time Zone: US/Eastern Elev: 101 ft

Show me the last for .
Show Decoded

2019-01-18 01:53 METAR KMMK 180653Z AUTO 00000KT 10SM BKN033 BKN065 OVC085 M03/M12 A3022 RMK AO2
                 SLP236 T10281122 =
2019-01-18 00:53 METAR KMMK 180553Z AUTO 00000KT 10SM OVC033 M03/M10 A3023 RMK AO2 SLP239
                 T10331100 11028 21044 58021 =
2019-01-17 23:53 METAR KMMK 180453Z AUTO 00000KT 10SM BKN090 OVC110 M03/M11 A3026 RMK AO2 SLP249
                 T10331106 410061067 =
2019-01-17 22:53 METAR KMMK 180353Z AUTO 00000KT 10SM BKN120 M04/M11 A3028 RMK AO2 SLP256
                 T10391111 =
2019-01-17 21:53 METAR KMMK 180253Z AUTO 00000KT 10SM FEW110 M04/M12 A3030 RMK AO2 SLP262
                 T10391117 56011 =
2019-01-17 20:53 METAR KMMK 180153Z AUTO 00000KT 10SM BKN110 M04/M11 A3030 RMK AO2 SLP264
                 T10391111 =
2019-01-17 19:53 METAR KMMK 180053Z AUTO 10SM FEW120 M03/M13 A3031 RMK AO2 SLP268 T10331133 =
2019-01-17 18:53 METAR KMMK 172353Z AUTO 18003KT 10SM FEW120 M03/M15 A3033 RMK AO2 SLP273
                 T10281150 11006 21044 53002 =
2019-01-17 17:53 METAR KMMK 172253Z AUTO 00000KT 10SM CLR M04/M13 A3032 RMK AO2 SLP270 T10391128
                 =
2019-01-17 16:53 METAR KMMK 172153Z AUTO 12006KT 10SM FEW120 M02/M19 A3030 RMK AO2 SLP262
                 T10221189 =
2019-01-17 15:53 METAR KMMK 172053Z AUTO 15004KT 10SM CLR M02/M21 A3032 RMK AO2 SLP269 T10171206
                 56016 =
2019-01-17 14:53 METAR KMMK 171953Z AUTO 28004KT 10SM CLR M01/M21 A3034 RMK AO2 SLP274 T10111206
                 =
2019-01-17 13:53 METAR KMMK 171853Z AUTO VRB03KT 10SM CLR M01/M21 A3033 RMK AO2 SLP273 T10111206
                 =
2019-01-17 12:53 METAR KMMK 171753Z AUTO VRB05KT 10SM CLR M01/M21 A3037 RMK AO2 SLP285 T10111206
                 11011 21067 58020 =
2019-01-17 11:53 METAR KMMK 171653Z AUTO VRB04KT 10SM CLR M03/M21 A3039 RMK AO2 SLP292 T10281206
                 =
2019-01-17 10:53 METAR KMMK 171553Z AUTO 35008KT 10SM CLR M03/M21 A3043 RMK AO2 SLP305 T10331206
                 =
2019-01-17 09:53 METAR KMMK 171453Z AUTO VRB05KT 10SM CLR M04/M20 A3043 RMK AO2 SLP306 T10441200
                 51019 =
2019-01-17 08:53 METAR KMMK 171353Z AUTO 32006KT 10SM CLR M06/M18 A3041 RMK AO2 SLP299 T10561183
                 =
2019-01-17 07:53 METAR KMMK 171253Z AUTO VRB05KT 10SM CLR M06/M17 A3040 RMK AO2 SLP295 T10611167
                 =
2019-01-17 06:53 METAR KMMK 171153Z AUTO 33006KT 10SM CLR M06/M16 A3037 RMK AO2 SLP287 T10611161
                 11022 21061 53029 =
2019-01-17 05:53 METAR KMMK 171053Z AUTO 01007KT 330V050 10SM CLR M06/M16 A3033 RMK AO2 SLP273
                 T10561161 =
2019-01-17 04:53 METAR KMMK 170953Z AUTO VRB04KT 10SM CLR M05/M14 A3032 RMK AO2 SLP267 T10501139
                 =
2019-01-17 03:53 METAR KMMK 170853Z AUTO 32011G18KT 10SM CLR M04/M13 A3029 RMK AO2 SLP258
                 T10441133 51021 =
2019-01-17 02:53 METAR KMMK 170753Z AUTO 10SM CLR M04/M13 A3028 RMK AO2 SLP256 T10391128 =

Support USWX by starting your Amazon purchase here.